»·PEaware :: SWA2144 KLAS-KSFO

SWA2144 :: KLAS-KSFO

FLIGHT INFORMATION

Flight Status: Arrived
Operator:
Southwest Airlines
More flights by this operator :: More flights under this callsign
Pilot: Anonymous 17611 (17611)
Aircraft: Unknown
(B38M)
More flights by this aircraft type
Origin: KLAS McCarran Intl
United States
Destination: KSFO San Francisco Intl
United States
More flights between these airports :: More routes between these airports
Route: +SHEAD1 OAL INYOE ALWYS2
File this flight plan on PilotEdge
Remarks:
Altitude:
(Current/Filed)
40,000ft
Speed:
(Current/Filed)
480kts
Departed: 24-Mar-20 11:40 AM
Arrived: 24-Mar-20 01:00 PM
Distance/Time
Traveled:
359nm/1:19
Distance/Time
To Go:
Arrived

Flight Plot

Page will automatically refresh every two minutes.

Flight plan parsing failed; only flown route is shown


Map Options




Map Legend


Flown Route
Filed Route
Departure Airport
Arrival Airport
Navaid (VOR, NDB)
Fix

Horizontal Profiles

Position Reports

Time Latitude Longitude Heading Altitude Ground
Speed
24-Mar-20 11:14 36.079693 -115.145759 335 2099ft 0kts
24-Mar-20 11:15 36.079693 -115.145759 335 2099ft 0kts
24-Mar-20 11:16 36.079693 -115.145759 335 2099ft 0kts
24-Mar-20 11:17 36.079693 -115.145759 335 2099ft 0kts
24-Mar-20 11:18 36.079693 -115.145759 335 2099ft 0kts
24-Mar-20 11:19 36.079693 -115.145759 335 2099ft 0kts
24-Mar-20 11:20 36.079693 -115.145759 335 2099ft 0kts
24-Mar-20 11:21 36.079693 -115.145759 335 2099ft 0kts
24-Mar-20 11:22 36.079693 -115.145759 335 2099ft 0kts
24-Mar-20 11:23 36.079693 -115.145759 335 2099ft 0kts
24-Mar-20 11:24 36.079693 -115.145759 335 2099ft 0kts
24-Mar-20 11:25 36.079693 -115.145759 335 2099ft 0kts
24-Mar-20 11:26 36.079693 -115.145759 335 2099ft 0kts
24-Mar-20 11:27 36.079693 -115.145759 335 2099ft 0kts
24-Mar-20 11:28 36.079645 -115.145732 335 2099ft 1kts
24-Mar-20 11:29 36.079413 -115.145177 252 2099ft 2kts
24-Mar-20 11:30 36.079794 -115.144838 177 2099ft 1kts
24-Mar-20 11:31 36.079817 -115.144839 179 2099ft 0kts
24-Mar-20 11:32 36.079061 -115.144842 181 2099ft 0kts
24-Mar-20 11:33 36.078271 -115.142788 90 2099ft 16kts
24-Mar-20 11:34 36.078274 -115.134328 92 2099ft 19kts
24-Mar-20 11:35 36.078259 -115.125373 91 2099ft 32kts
24-Mar-20 11:36 36.077540 -115.121594 135 2099ft 0kts
24-Mar-20 11:37 36.077540 -115.121594 135 2099ft 0kts
24-Mar-20 11:38 36.076662 -115.121337 202 2099ft 9kts
24-Mar-20 11:39 36.076861 -115.154988 268 2702ft 211kts
24-Mar-20 11:40 36.071828 -115.231667 241 6506ft 253kts
24-Mar-20 11:42 36.017323 -115.281994 200 7006ft 257kts
24-Mar-20 11:43 35.952052 -115.323513 224 9669ft 274kts
24-Mar-20 11:44 35.898579 -115.397786 243 12936ft 305kts
24-Mar-20 11:45 35.888069 -115.501481 266 17707ft 314kts
24-Mar-20 11:46 35.890205 -115.610757 266 19154ft 321kts
24-Mar-20 11:47 35.892180 -115.719307 265 23357ft 320kts
24-Mar-20 11:48 35.893906 -115.828919 265 26946ft 324kts
24-Mar-20 11:49 35.899351 -115.940931 277 30085ft 341kts
24-Mar-20 11:50 35.956698 -116.040740 301 33494ft 370kts
24-Mar-20 11:51 36.030282 -116.125141 301 36435ft 359kts
24-Mar-20 11:52 36.102198 -116.208049 301 38565ft 358kts
24-Mar-20 11:53 36.174587 -116.291808 301 40088ft 364kts
24-Mar-20 11:54 36.250207 -116.379697 301 40097ft 372kts
24-Mar-20 11:55 36.325647 -116.467336 301 40096ft 371kts
24-Mar-20 11:56 36.403076 -116.557863 302 40093ft 389kts
24-Mar-20 11:57 36.481602 -116.649512 302 40092ft 387kts
24-Mar-20 11:58 36.558726 -116.739963 303 40118ft 389kts
24-Mar-20 11:58 36.637037 -116.804140 312 40117ft 411kts
24-Mar-20 12:00 36.751078 -116.890524 312 40115ft 411kts
24-Mar-20 12:01 36.848490 -116.964699 312 40117ft 411kts
24-Mar-20 12:02 36.946298 -117.039447 312 40113ft 411kts
24-Mar-20 12:02 37.027492 -117.101682 312 40113ft 412kts
24-Mar-20 12:04 37.141284 -117.189144 312 40103ft 411kts
24-Mar-20 12:05 37.238904 -117.264446 313 40100ft 411kts
24-Mar-20 12:05 37.320802 -117.326037 316 40101ft 419kts
24-Mar-20 12:06 37.424907 -117.392845 317 40095ft 421kts
24-Mar-20 12:08 37.546425 -117.471435 317 40095ft 422kts
24-Mar-20 12:08 37.629138 -117.525195 317 40098ft 421kts
24-Mar-20 12:09 37.735217 -117.594339 317 40098ft 421kts
24-Mar-20 12:10 37.839183 -117.662341 316 40116ft 420kts
24-Mar-20 12:11 37.942285 -117.730331 313 40111ft 415kts
24-Mar-20 12:12 37.992203 -117.837534 269 40114ft 341kts
24-Mar-20 12:13 37.983918 -117.954889 259 40102ft 332kts
24-Mar-20 12:14 37.971562 -118.071481 259 40086ft 333kts
24-Mar-20 12:15 37.959118 -118.188206 259 40083ft 333kts
24-Mar-20 12:16 37.948184 -118.304476 260 40080ft 325kts
24-Mar-20 12:17 37.934049 -118.420074 259 40079ft 333kts
24-Mar-20 12:18 37.921407 -118.536348 259 40081ft 333kts
24-Mar-20 12:19 37.908914 -118.650380 258 40079ft 333kts
24-Mar-20 12:20 37.895759 -118.766617 258 40101ft 333kts
24-Mar-20 12:21 37.882505 -118.882908 258 39559ft 331kts
24-Mar-20 12:22 37.869569 -118.995941 258 38355ft 328kts
24-Mar-20 12:23 37.856760 -119.107373 258 36683ft 318kts
24-Mar-20 12:24 37.843859 -119.218634 258 34992ft 322kts
24-Mar-20 12:25 37.830749 -119.331488 257 33266ft 329kts
24-Mar-20 12:26 37.818734 -119.434021 257 31738ft 343kts
24-Mar-20 12:27 37.803043 -119.566205 256 30271ft 357kts
24-Mar-20 12:28 37.788054 -119.691152 255 29506ft 361kts
24-Mar-20 12:29 37.772648 -119.816757 255 28821ft 366kts
24-Mar-20 12:30 37.756907 -119.944553 254 28123ft 373kts
24-Mar-20 12:31 37.740718 -120.075285 254 27404ft 379kts
24-Mar-20 12:32 37.724211 -120.207695 254 27238ft 382kts
24-Mar-20 12:33 37.707577 -120.340327 254 27233ft 382kts
24-Mar-20 12:34 37.691377 -120.473378 255 27225ft 383kts
24-Mar-20 12:35 37.675909 -120.606774 255 26949ft 385kts
24-Mar-20 12:36 37.660788 -120.736078 254 25557ft 346kts
24-Mar-20 12:37 37.647824 -120.845583 252 24249ft 297kts
24-Mar-20 12:38 37.635561 -120.950312 258 23862ft 308kts
24-Mar-20 12:39 37.651334 -121.055547 273 22081ft 300kts
24-Mar-20 12:40 37.670198 -121.156331 275 19977ft 290kts
24-Mar-20 12:41 37.688351 -121.253927 277 17868ft 283kts
24-Mar-20 12:42 37.706226 -121.350605 278 15720ft 280kts
24-Mar-20 12:43 37.723781 -121.446128 279 13416ft 281kts
24-Mar-20 12:44 37.741342 -121.542225 279 11108ft 282kts
24-Mar-20 12:45 37.758728 -121.637681 279 9063ft 259kts
24-Mar-20 12:46 37.774011 -121.721910 279 6985ft 237kts
24-Mar-20 12:47 37.788051 -121.799867 278 6991ft 220kts
24-Mar-20 12:48 37.801463 -121.874910 278 6990ft 220kts
24-Mar-20 12:49 37.814815 -121.949860 278 6989ft 220kts
24-Mar-20 12:50 37.828122 -122.024796 278 6557ft 220kts
24-Mar-20 12:51 37.841042 -122.097779 278 5743ft 219kts
24-Mar-20 12:52 37.852623 -122.172263 263 4995ft 213kts
24-Mar-20 12:53 37.817621 -122.224558 202 4686ft 202kts
24-Mar-20 12:54 37.778695 -122.268795 205 3630ft 193kts
24-Mar-20 12:55 37.730854 -122.298348 206 2313ft 182kts
24-Mar-20 12:56 37.690743 -122.325139 205 1435ft 149kts
24-Mar-20 12:57 37.654252 -122.349315 205 636ft 148kts
24-Mar-20 12:58 37.621819 -122.370871 202 20ft 113kts
24-Mar-20 12:59 37.613278 -122.379015 302 19ft 15kts

Navigation Log

Ident Type
Flight plan parsing failed, navigation log unavailable